Time;durP1;ratioP1;P1;durP2;ratioP2;P2;SDS_P1;SDS_P2;PMS_P1;PMS_P2;Temp;Humidity;BMP_temperature;BMP_pressure;BME280_temperature;BME280_humidity;BME280_pressure;Samples;Min_cycle;Max_cycle;Signal;HPM_P1;HPM_P2
2021/08/07 00:02:22;;;;;;;10.75;7.93;;;16.50;99.90;;;;;;5051240;28;20106;-72
2021/08/07 00:04:48;;;;;;;14.20;7.93;;;16.50;99.90;;;;;;5051402;28;20053;-73
2021/08/07 00:07:15;;;;;;;7.93;7.07;;;16.60;99.90;;;;;;5049340;28;20402;-75
2021/08/07 00:09:41;;;;;;;8.27;7.18;;;16.60;99.90;;;;;;5040457;28;20041;-75
2021/08/07 00:12:08;;;;;;;7.57;6.72;;;16.60;99.90;;;;;;5037345;28;20116;-76
2021/08/07 00:14:36;;;;;;;7.93;7.13;;;16.40;99.90;;;;;;5052936;28;20493;-77
2021/08/07 00:17:03;;;;;;;9.18;6.75;;;16.40;99.90;;;;;;5052153;28;20048;-77
2021/08/07 00:19:30;;;;;;;8.15;6.57;;;16.40;99.90;;;;;;5050529;28;20049;-75
2021/08/07 00:21:57;;;;;;;7.32;5.50;;;16.30;99.90;;;;;;5032604;28;20042;-73
2021/08/07 00:24:24;;;;;;;7.05;6.35;;;16.30;99.90;;;;;;5032459;28;20486;-73
2021/08/07 00:26:50;;;;;;;8.77;5.97;;;16.20;99.90;;;;;;5032483;28;20104;-72
2021/08/07 00:29:17;;;;;;;6.68;5.30;;;16.20;99.90;;;;;;5042189;28;20049;-73
2021/08/07 00:31:45;;;;;;;6.95;6.20;;;16.20;99.90;;;;;;5049646;28;20041;-73
2021/08/07 00:34:11;;;;;;;5.95;5.28;;;16.10;99.90;;;;;;5052168;28;20497;-75
2021/08/07 00:36:38;;;;;;;8.30;6.00;;;16.10;99.90;;;;;;5034280;28;20506;-74
2021/08/07 00:39:05;;;;;;;6.75;6.15;;;16.10;99.90;;;;;;5031875;28;20072;-73
2021/08/07 00:41:31;;;;;;;6.07;5.47;;;16.10;99.90;;;;;;5032801;28;20440;-72
2021/08/07 00:43:58;;;;;;;6.38;5.68;;;16.10;99.90;;;;;;5043014;28;20103;-74
2021/08/07 00:46:25;;;;;;;6.20;5.53;;;16.00;99.90;;;;;;5040623;28;20049;-73
2021/08/07 00:48:53;;;;;;;7.05;5.97;;;16.00;99.90;;;;;;5032069;28;20092;-72
2021/08/07 00:51:19;;;;;;;6.95;6.25;;;16.00;99.90;;;;;;5032192;28;20480;-73
2021/08/07 00:53:46;;;;;;;6.15;5.55;;;15.80;99.90;;;;;;5032331;28;20049;-73
2021/08/07 00:56:13;;;;;;;8.73;5.22;;;15.80;99.90;;;;;;5049080;28;20458;-73
2021/08/07 00:58:40;;;;;;;5.95;5.35;;;15.80;99.90;;;;;;5038119;28;20041;-73
2021/08/07 01:01:10;;;;;;;6.13;5.43;;;15.80;99.90;;;;;;5043603;28;20044;-74
2021/08/07 01:03:45;;;;;;;6.97;5.18;;;15.70;99.90;;;;;;5055967;28;20099;-78
2021/08/07 01:06:23;;;;;;;6.68;4.80;;;15.70;99.90;;;;;;5055830;28;20056;-75
2021/08/07 01:08:57;;;;;;;6.63;5.15;;;15.70;99.90;;;;;;5055753;28;20053;-79
2021/08/07 01:11:32;;;;;;;7.35;5.40;;;15.70;99.90;;;;;;5039192;28;20053;-77
2021/08/07 01:14:02;;;;;;;5.45;4.95;;;15.70;99.90;;;;;;5046588;28;20098;-74
2021/08/07 01:16:31;;;;;;;4.78;4.38;;;15.60;99.90;;;;;;5055760;28;20098;-75
2021/08/07 01:19:00;;;;;;;4.65;4.10;;;15.60;99.90;;;;;;5054830;28;20455;-74
2021/08/07 01:21:34;;;;;;;5.00;4.50;;;15.60;99.90;;;;;;5051120;28;20096;-73
2021/08/07 01:24:05;;;;;;;6.50;4.40;;;15.60;99.90;;;;;;5048665;28;20053;-73
2021/08/07 01:26:38;;;;;;;4.55;4.15;;;15.50;99.90;;;;;;5048362;28;20060;-73
2021/08/07 01:29:07;;;;;;;5.10;4.50;;;15.50;99.90;;;;;;5042940;28;20045;-73
2021/08/07 01:31:33;;;;;;;4.68;4.28;;;15.40;99.90;;;;;;5035527;28;20555;-73
2021/08/07 01:34:02;;;;;;;4.82;4.32;;;15.40;99.90;;;;;;5036831;28;20049;-74
2021/08/07 01:36:30;;;;;;;4.88;3.67;;;15.30;99.90;;;;;;5035461;28;20096;-75
2021/08/07 01:38:57;;;;;;;4.53;4.13;;;15.40;99.90;;;;;;5034866;28;20050;-76
2021/08/07 01:41:24;;;;;;;4.28;3.50;;;15.40;99.90;;;;;;5049400;28;20048;-76
2021/08/07 01:43:52;;;;;;;4.75;3.92;;;15.30;99.90;;;;;;5043383;28;20072;-75
2021/08/07 01:46:21;;;;;;;6.90;4.72;;;15.30;99.90;;;;;;5038496;28;20041;-75
2021/08/07 01:48:55;;;;;;;4.95;3.60;;;15.30;99.90;;;;;;5057198;28;20072;-74
2021/08/07 01:51:26;;;;;;;4.53;4.07;;;15.30;99.90;;;;;;5057764;28;20045;-78
2021/08/07 01:53:55;;;;;;;5.33;4.80;;;15.30;99.90;;;;;;5056309;28;20048;-79
2021/08/07 01:56:28;;;;;;;4.88;4.43;;;15.30;99.90;;;;;;5050131;28;20489;-74
2021/08/07 01:58:59;;;;;;;5.35;4.80;;;15.30;99.90;;;;;;5034604;28;20485;-76
2021/08/07 02:01:29;;;;;;;6.03;5.13;;;15.20;99.90;;;;;;5043773;28;20045;-74
2021/08/07 02:03:57;;;;;;;5.60;3.90;;;15.20;99.90;;;;;;5054469;28;20295;-74
2021/08/07 02:06:25;;;;;;;5.80;4.40;;;15.10;99.90;;;;;;5049602;28;20042;-75
2021/08/07 02:08:53;;;;;;;5.63;4.63;;;15.10;99.90;;;;;;5034337;28;20046;-75
2021/08/07 02:11:20;;;;;;;6.55;4.70;;;15.10;99.90;;;;;;5049102;28;20076;-77
2021/08/07 02:13:49;;;;;;;6.45;4.85;;;15.10;99.90;;;;;;5054674;28;20486;-75
2021/08/07 02:16:17;;;;;;;6.78;4.63;;;15.10;99.90;;;;;;5053873;28;20049;-75
2021/08/07 02:18:47;;;;;;;7.38;5.82;;;15.10;99.90;;;;;;5053224;28;20110;-76
2021/08/07 02:21:16;;;;;;;6.03;5.13;;;15.10;99.90;;;;;;5053360;28;20513;-75
2021/08/07 02:23:42;;;;;;;6.40;5.35;;;15.00;99.90;;;;;;5041137;28;20493;-74
2021/08/07 02:26:12;;;;;;;7.80;6.22;;;15.00;99.90;;;;;;5054323;28;20045;-77
2021/08/07 02:28:39;;;;;;;7.75;6.15;;;15.00;99.90;;;;;;5036835;28;20045;-73
2021/08/07 02:31:06;;;;;;;9.38;5.78;;;15.00;99.90;;;;;;5034217;28;20045;-73
2021/08/07 02:33:35;;;;;;;7.45;6.40;;;15.00;99.90;;;;;;5034959;28;20038;-73
2021/08/07 02:36:05;;;;;;;6.07;5.15;;;15.10;99.90;;;;;;5034384;28;20046;-73
2021/08/07 02:38:33;;;;;;;6.60;5.80;;;15.00;99.90;;;;;;5044618;28;20049;-73
2021/08/07 02:41:01;;;;;;;10.10;5.43;;;15.00;99.90;;;;;;5053590;28;20045;-72
2021/08/07 02:43:28;;;;;;;7.68;5.72;;;15.00;99.90;;;;;;5053533;28;20045;-75
2021/08/07 02:45:56;;;;;;;6.93;5.50;;;15.00;99.90;;;;;;5053743;28;20478;-75
2021/08/07 02:48:25;;;;;;;7.85;6.10;;;15.00;99.90;;;;;;5053364;28;20170;-77
2021/08/07 02:50:52;;;;;;;7.65;5.20;;;15.00;99.90;;;;;;5049909;28;20044;-73
2021/08/07 02:53:21;;;;;;;6.00;5.38;;;15.10;99.90;;;;;;5053652;28;20048;-79
2021/08/07 02:55:48;;;;;;;6.95;5.75;;;15.00;99.90;;;;;;5053625;28;20044;-73
2021/08/07 02:58:15;;;;;;;7.63;5.68;;;15.00;99.90;;;;;;5053802;28;20045;-75
2021/08/07 03:00:41;;;;;;;7.65;5.07;;;15.10;99.90;;;;;;5036234;28;20103;-78
2021/08/07 03:03:08;;;;;;;7.55;5.88;;;15.00;99.90;;;;;;5033906;28;20045;-76
2021/08/07 03:05:35;;;;;;;7.30;5.95;;;15.00;99.90;;;;;;5036636;28;20097;-75
2021/08/07 03:08:01;;;;;;;9.20;5.30;;;15.00;99.90;;;;;;5049417;28;20053;-74
2021/08/07 03:10:29;;;;;;;6.38;5.00;;;14.90;99.90;;;;;;5052275;28;20409;-75
2021/08/07 03:12:57;;;;;;;7.53;6.60;;;14.90;99.90;;;;;;5052754;28;20041;-74
2021/08/07 03:15:25;;;;;;;6.28;5.60;;;14.90;99.90;;;;;;5033783;28;20087;-74
2021/08/07 03:17:52;;;;;;;6.22;4.82;;;14.80;99.90;;;;;;5033372;28;20053;-74
2021/08/07 03:20:19;;;;;;;7.22;5.53;;;14.90;99.90;;;;;;5032416;28;20119;-76
2021/08/07 03:22:46;;;;;;;7.07;5.15;;;14.80;99.90;;;;;;5033582;28;20088;-75
2021/08/07 03:25:13;;;;;;;6.05;5.45;;;14.80;99.90;;;;;;5034507;28;20045;-74
2021/08/07 03:27:41;;;;;;;5.53;4.43;;;14.80;99.90;;;;;;5050348;28;20044;-72
2021/08/07 03:30:08;;;;;;;9.23;6.15;;;14.70;99.90;;;;;;5035287;28;20049;-73
2021/08/07 03:32:35;;;;;;;6.53;5.45;;;14.70;99.90;;;;;;5034012;28;20045;-73
2021/08/07 03:35:01;;;;;;;7.35;5.22;;;14.60;99.90;;;;;;5033108;28;20123;-73
2021/08/07 03:37:28;;;;;;;6.20;5.18;;;14.70;99.90;;;;;;5048301;28;20053;-73
2021/08/07 03:39:55;;;;;;;6.07;5.15;;;14.70;99.90;;;;;;5048471;28;20044;-75
2021/08/07 03:42:21;;;;;;;5.38;4.55;;;14.70;99.90;;;;;;5049796;28;20048;-73
2021/08/07 03:44:49;;;;;;;5.38;4.63;;;14.70;99.90;;;;;;5053007;28;20095;-73
2021/08/07 03:47:16;;;;;;;6.38;5.20;;;14.60;99.90;;;;;;5040413;28;20552;-74
2021/08/07 03:49:42;;;;;;;4.78;4.20;;;14.60;99.90;;;;;;5052279;28;20049;-73
2021/08/07 03:52:09;;;;;;;6.72;5.28;;;14.60;99.90;;;;;;5040156;28;20490;-73
2021/08/07 03:54:36;;;;;;;5.82;5.10;;;14.70;99.90;;;;;;5049656;28;20044;-74
2021/08/07 03:57:02;;;;;;;7.00;4.63;;;14.70;99.90;;;;;;5041719;28;20053;-79
2021/08/07 03:59:29;;;;;;;9.00;5.50;;;14.60;99.90;;;;;;5033684;28;20041;-74
2021/08/07 04:01:57;;;;;;;7.90;5.07;;;14.50;99.90;;;;;;5035131;28;20099;-74
2021/08/07 04:04:24;;;;;;;5.68;5.05;;;14.50;99.90;;;;;;5053612;28;20049;-74
2021/08/07 04:06:50;;;;;;;5.90;5.10;;;14.50;99.90;;;;;;5051944;28;20049;-73
2021/08/07 04:09:17;;;;;;;11.75;5.50;;;14.60;99.90;;;;;;5041476;28;20063;-74
2021/08/07 04:11:43;;;;;;;5.90;5.25;;;14.60;99.90;;;;;;5043683;28;20037;-73
2021/08/07 04:14:10;;;;;;;6.65;4.88;;;14.70;99.90;;;;;;5034895;28;20413;-77
2021/08/07 04:16:38;;;;;;;5.93;4.70;;;14.70;99.90;;;;;;5033443;28;20100;-74
2021/08/07 04:19:05;;;;;;;6.03;5.10;;;14.70;99.90;;;;;;5033384;28;20457;-77
2021/08/07 04:21:32;;;;;;;6.80;5.07;;;14.80;99.90;;;;;;5050255;28;20056;-73
2021/08/07 04:23:59;;;;;;;6.40;5.10;;;14.80;99.90;;;;;;5052933;28;20048;-77
2021/08/07 04:26:25;;;;;;;6.45;4.68;;;14.90;99.90;;;;;;5050245;28;20490;-75
2021/08/07 04:28:52;;;;;;;5.78;5.18;;;15.00;99.90;;;;;;5032664;28;20053;-74
2021/08/07 04:31:18;;;;;;;6.93;4.97;;;15.00;99.90;;;;;;5034597;28;20068;-74
2021/08/07 04:33:45;;;;;;;5.93;5.32;;;15.00;99.90;;;;;;5045977;28;20091;-74
2021/08/07 04:36:13;;;;;;;7.50;4.80;;;15.00;99.90;;;;;;5055719;28;20049;-73
2021/08/07 04:38:39;;;;;;;5.90;4.97;;;15.10;99.90;;;;;;5055914;28;20051;-74
2021/08/07 04:41:06;;;;;;;6.50;5.00;;;15.10;99.90;;;;;;5056386;28;20045;-75
2021/08/07 04:43:34;;;;;;;6.03;4.60;;;15.20;99.90;;;;;;5052497;28;20489;-75
2021/08/07 04:46:00;;;;;;;6.72;5.22;;;15.20;99.90;;;;;;5055980;28;20045;-79
2021/08/07 04:48:27;;;;;;;5.60;4.90;;;15.30;99.90;;;;;;5036011;28;20041;-74
2021/08/07 04:50:54;;;;;;;8.30;5.05;;;15.40;99.90;;;;;;5053088;28;20493;-75
2021/08/07 04:53:22;;;;;;;6.22;5.15;;;15.40;99.90;;;;;;5055437;28;20048;-75
2021/08/07 04:55:48;;;;;;;6.05;5.13;;;15.40;99.90;;;;;;5055499;28;20099;-75
2021/08/07 04:58:15;;;;;;;9.48;5.03;;;15.40;99.90;;;;;;5055672;28;20079;-75
2021/08/07 05:00:42;;;;;;;7.47;4.88;;;15.50;99.90;;;;;;5052936;28;20430;-75
2021/08/07 05:03:08;;;;;;;5.20;4.53;;;15.60;99.90;;;;;;5035790;28;20410;-76
2021/08/07 05:05:35;;;;;;;6.53;5.25;;;15.70;99.90;;;;;;5043864;28;20049;-74
2021/08/07 05:08:01;;;;;;;8.65;4.70;;;15.80;99.90;;;;;;5036006;28;20045;-75
2021/08/07 05:10:30;;;;;;;8.80;4.93;;;15.80;99.90;;;;;;5035634;28;20095;-77
2021/08/07 05:12:56;;;;;;;7.55;5.72;;;15.90;99.90;;;;;;5055720;28;20049;-74
2021/08/07 05:15:23;;;;;;;5.50;5.00;;;16.00;99.90;;;;;;5037275;28;20111;-74
2021/08/07 05:17:50;;;;;;;6.90;6.20;;;16.00;99.90;;;;;;5041659;28;20618;-77
2021/08/07 05:20:17;;;;;;;8.48;6.03;;;16.10;99.90;;;;;;5054761;28;20041;-74
2021/08/07 05:22:43;;;;;;;6.78;5.32;;;16.20;99.90;;;;;;5049909;28;20045;-78
2021/08/07 05:25:11;;;;;;;6.38;4.68;;;16.30;99.90;;;;;;5051925;28;20119;-74
2021/08/07 05:27:39;;;;;;;7.72;6.45;;;16.40;99.90;;;;;;5054543;28;20498;-77
2021/08/07 05:30:07;;;;;;;11.57;6.60;;;16.50;99.90;;;;;;5054436;28;20068;-78
2021/08/07 05:32:34;;;;;;;7.28;4.65;;;16.50;99.90;;;;;;5054659;28;20044;-75
2021/08/07 05:35:00;;;;;;;6.53;4.82;;;16.60;99.90;;;;;;5055298;28;20091;-73
2021/08/07 05:37:27;;;;;;;4.75;4.25;;;16.70;99.90;;;;;;5055019;28;20115;-74
2021/08/07 05:39:53;;;;;;;5.97;4.45;;;16.70;99.90;;;;;;5054938;28;20095;-75
2021/08/07 05:42:20;;;;;;;6.18;4.63;;;16.80;99.90;;;;;;5048499;28;20057;-75
2021/08/07 05:44:48;;;;;;;6.10;3.88;;;16.80;99.90;;;;;;5034775;28;20045;-74
2021/08/07 05:47:15;;;;;;;4.05;3.40;;;16.90;99.90;;;;;;5053177;28;20060;-73
2021/08/07 05:49:42;;;;;;;4.97;3.60;;;17.00;99.90;;;;;;5050976;28;20057;-77
2021/08/07 05:52:08;;;;;;;6.60;5.28;;;17.00;99.90;;;;;;5034956;28;20060;-73
2021/08/07 05:54:35;;;;;;;5.47;4.53;;;17.10;99.90;;;;;;5047796;28;20485;-73
2021/08/07 05:57:02;;;;;;;8.02;4.10;;;17.30;99.90;;;;;;5035914;28;20111;-73
2021/08/07 05:59:29;;;;;;;10.77;8.18;;;17.30;99.90;;;;;;5052402;28;20041;-72
2021/08/07 06:01:56;;;;;;;4.03;3.63;;;17.50;99.90;;;;;;5052098;28;20045;-73
2021/08/07 06:04:23;;;;;;;3.95;3.25;;;17.70;99.90;;;;;;5034723;28;20089;-76
2021/08/07 06:06:50;;;;;;;3.85;3.53;;;17.80;99.90;;;;;;5052270;28;20049;-75
2021/08/07 06:09:16;;;;;;;5.53;3.95;;;18.00;99.90;;;;;;5054109;28;20489;-75
2021/08/07 06:11:43;;;;;;;3.80;3.15;;;18.20;99.90;;;;;;5054127;28;20053;-75
2021/08/07 06:14:09;;;;;;;3.80;3.50;;;18.40;99.90;;;;;;5055343;28;20094;-79
2021/08/07 06:16:36;;;;;;;3.40;3.10;;;18.20;99.90;;;;;;5055115;28;20118;-75
2021/08/07 06:19:04;;;;;;;3.45;2.55;;;18.50;99.90;;;;;;5054789;28;20057;-75
2021/08/07 06:21:31;;;;;;;5.53;3.40;;;18.80;99.90;;;;;;5054940;28;20095;-76
2021/08/07 06:23:58;;;;;;;3.75;2.90;;;18.90;99.90;;;;;;5055785;28;20118;-74
2021/08/07 06:26:26;;;;;;;4.25;3.85;;;19.10;99.90;;;;;;5047969;28;20128;-77
2021/08/07 06:28:52;;;;;;;5.97;4.38;;;19.30;99.90;;;;;;5034203;28;20045;-75
2021/08/07 06:31:19;;;;;;;5.80;4.53;;;19.60;99.90;;;;;;5048832;28;20052;-75
2021/08/07 06:33:46;;;;;;;7.35;3.78;;;19.40;99.90;;;;;;5042734;28;20156;-75
2021/08/07 06:36:14;;;;;;;3.50;2.88;;;19.40;99.90;;;;;;5034827;28;20041;-75
2021/08/07 06:38:41;;;;;;;7.07;4.63;;;19.70;99.90;;;;;;5049434;28;20061;-75
2021/08/07 06:41:08;;;;;;;4.50;3.83;;;19.90;99.90;;;;;;5053475;28;20042;-72
2021/08/07 06:43:35;;;;;;;3.38;2.88;;;19.80;99.90;;;;;;5053077;28;20106;-68
2021/08/07 06:46:01;;;;;;;3.85;2.97;;;20.00;99.90;;;;;;5050890;28;20115;-72
2021/08/07 06:48:28;;;;;;;3.60;3.13;;;20.30;99.90;;;;;;5034267;28;20046;-69
2021/08/07 06:50:55;;;;;;;4.78;3.47;;;20.50;99.90;;;;;;5048780;28;20194;-70
2021/08/07 06:53:23;;;;;;;4.80;3.10;;;20.80;99.90;;;;;;5050505;28;20559;-71
2021/08/07 06:55:50;;;;;;;5.30;3.80;;;20.70;99.90;;;;;;5041047;28;20054;-69
2021/08/07 06:58:16;;;;;;;2.75;2.55;;;20.80;99.90;;;;;;5034731;28;20041;-73
2021/08/07 07:00:43;;;;;;;2.60;2.20;;;21.20;99.90;;;;;;5052930;28;20049;-72
2021/08/07 07:03:09;;;;;;;3.17;2.50;;;21.40;99.90;;;;;;5052705;28;20447;-70
2021/08/07 07:05:37;;;;;;;4.00;2.45;;;20.90;99.90;;;;;;5052744;28;20045;-76
2021/08/07 07:08:04;;;;;;;2.90;2.45;;;21.30;99.90;;;;;;5052266;28;20053;-70
2021/08/07 07:10:32;;;;;;;2.60;2.40;;;21.40;99.90;;;;;;5052020;28;20429;-70
2021/08/07 07:12:59;;;;;;;5.93;2.75;;;21.20;99.90;;;;;;5052738;28;20099;-73
2021/08/07 07:15:26;;;;;;;3.78;2.50;;;21.30;99.90;;;;;;5051934;28;20090;-70
2021/08/07 07:17:53;;;;;;;3.47;2.85;;;21.20;99.90;;;;;;5052341;28;20053;-73
2021/08/07 07:20:21;;;;;;;2.33;2.00;;;21.50;99.90;;;;;;5051329;28;20052;-74
2021/08/07 07:22:47;;;;;;;2.88;2.30;;;21.90;99.90;;;;;;5049143;28;20493;-69
2021/08/07 07:25:15;;;;;;;2.95;2.30;;;21.70;99.90;;;;;;5032337;28;20482;-72
2021/08/07 07:27:43;;;;;;;2.67;1.95;;;21.60;99.90;;;;;;5046098;28;20052;-72
2021/08/07 07:30:11;;;;;;;5.38;3.75;;;22.10;99.90;;;;;;5043552;28;20107;-71
2021/08/07 07:32:37;;;;;;;4.90;3.58;;;22.50;99.90;;;;;;5032271;28;20096;-71
2021/08/07 07:35:06;;;;;;;2.00;1.80;;;22.70;99.90;;;;;;5038808;28;20493;-74
2021/08/07 07:37:33;;;;;;;2.45;2.25;;;23.00;99.90;;;;;;5051790;28;20437;-70
2021/08/07 07:39:59;;;;;;;7.85;5.70;;;22.50;99.90;;;;;;5051436;28;20535;-74
2021/08/07 07:42:26;;;;;;;4.10;2.88;;;22.80;99.90;;;;;;5052380;28;20091;-72
2021/08/07 07:44:54;;;;;;;3.17;2.58;;;22.90;99.90;;;;;;5036900;28;20054;-74
2021/08/07 07:47:21;;;;;;;2.40;2.20;;;23.00;99.90;;;;;;5051497;28;20049;-74
2021/08/07 07:49:47;;;;;;;2.78;2.45;;;23.10;99.90;;;;;;5051451;28;20094;-73
2021/08/07 07:52:14;;;;;;;4.03;2.78;;;23.50;99.90;;;;;;5051894;28;20040;-74
2021/08/07 07:54:40;;;;;;;4.13;2.67;;;24.10;99.90;;;;;;5052283;28;20044;-72
2021/08/07 07:57:07;;;;;;;2.65;2.33;;;24.30;99.90;;;;;;5052434;28;20049;-73
2021/08/07 07:59:34;;;;;;;2.53;2.33;;;23.60;99.90;;;;;;5051596;28;20118;-73
2021/08/07 08:02:03;;;;;;;4.85;1.90;;;24.00;99.90;;;;;;5051471;28;20460;-72
2021/08/07 08:04:31;;;;;;;1.88;1.77;;;24.50;99.90;;;;;;5051816;28;20136;-73
2021/08/07 08:06:57;;;;;;;2.72;2.05;;;24.30;99.90;;;;;;5049891;28;20102;-73
2021/08/07 08:09:24;;;;;;;3.25;2.67;;;23.80;99.90;;;;;;5045021;28;20494;-69
2021/08/07 08:11:51;;;;;;;2.80;2.47;;;23.90;99.90;;;;;;5031625;28;20056;-68
2021/08/07 08:14:18;;;;;;;3.05;2.30;;;24.40;99.90;;;;;;5031686;28;20045;-68
2021/08/07 08:16:45;;;;;;;1.98;1.88;;;25.00;99.90;;;;;;5049663;28;20049;-67
2021/08/07 08:19:14;;;;;;;2.65;1.88;;;24.90;99.90;;;;;;5050697;28;20080;-68
2021/08/07 08:21:40;;;;;;;2.42;2.10;;;24.80;99.90;;;;;;5051849;28;20052;-68
2021/08/07 08:24:07;;;;;;;2.28;2.15;;;25.30;99.90;;;;;;5051778;28;20095;-68
2021/08/07 08:26:34;;;;;;;2.15;1.95;;;25.70;99.90;;;;;;5052198;28;20052;-68
2021/08/07 08:29:01;;;;;;;2.45;2.25;;;26.30;99.90;;;;;;5051202;28;20140;-69
2021/08/07 08:31:27;;;;;;;2.45;2.10;;;26.70;99.40;;;;;;5051434;28;20045;-69
2021/08/07 08:33:54;;;;;;;6.95;4.85;;;26.40;99.80;;;;;;5043122;28;20041;-70
2021/08/07 08:36:22;;;;;;;2.95;1.88;;;27.00;99.80;;;;;;5032098;28;20045;-69
2021/08/07 08:38:49;;;;;;;5.57;4.15;;;27.20;96.50;;;;;;5050996;28;20053;-69
2021/08/07 08:41:15;;;;;;;4.10;2.30;;;27.60;96.80;;;;;;5051658;28;20079;-68
2021/08/07 08:43:43;;;;;;;2.60;1.48;;;27.40;95.70;;;;;;5051555;28;20044;-69
2021/08/07 08:46:10;;;;;;;1.77;1.58;;;28.00;92.30;;;;;;5051082;28;20053;-70
2021/08/07 08:48:38;;;;;;;2.08;1.70;;;27.60;91.90;;;;;;5050593;28;20053;-68
2021/08/07 08:51:08;;;;;;;1.55;1.45;;;27.40;91.90;;;;;;5051281;28;20047;-69
2021/08/07 08:53:39;;;;;;;2.72;1.80;;;27.50;92.30;;;;;;5051241;28;20045;-70
2021/08/07 08:56:06;;;;;;;1.65;1.45;;;26.70;93.30;;;;;;5050990;28;20493;-68
2021/08/07 08:58:35;;;;;;;2.78;1.95;;;26.50;93.10;;;;;;5046058;28;20041;-67
2021/08/07 09:01:03;;;;;;;2.20;2.00;;;27.80;92.80;;;;;;5034657;28;20076;-68
2021/08/07 09:03:29;;;;;;;1.80;1.70;;;27.80;91.60;;;;;;5031139;28;20050;-69
2021/08/07 09:05:56;;;;;;;2.03;1.83;;;27.80;89.00;;;;;;5031036;28;20119;-69
2021/08/07 09:08:23;;;;;;;1.67;1.58;;;27.60;90.10;;;;;;5030488;28;20383;-68
2021/08/07 09:11:16;;;;;;;1.92;1.60;;;27.10;91.00;;;;;;5030882;28;20107;-71
2021/08/07 09:13:43;;;;;;;2.25;1.55;;;26.90;91.00;;;;;;5031027;28;20060;-68
2021/08/07 09:16:11;;;;;;;2.40;1.98;;;27.90;92.00;;;;;;5045799;28;20539;-68
2021/08/07 09:18:38;;;;;;;1.35;1.23;;;27.90;88.20;;;;;;5053534;28;20321;-69
2021/08/07 09:21:14;;;;;;;1.83;1.73;;;27.50;87.80;;;;;;5054293;28;20119;-71
2021/08/07 09:23:41;;;;;;;2.00;1.83;;;27.30;88.00;;;;;;5054343;28;20198;-68
2021/08/07 09:26:20;;;;;;;2.40;2.20;;;27.80;90.40;;;;;;5042801;28;20046;-69
2021/08/07 09:28:52;;;;;;;1.92;1.83;;;27.90;90.00;;;;;;5033996;28;20049;-69
2021/08/07 09:31:19;;;;;;;2.17;1.70;;;28.30;86.60;;;;;;5044556;28;20473;-69
2021/08/07 09:33:46;;;;;;;2.17;1.80;;;28.50;86.00;;;;;;5054114;28;20041;-70
2021/08/07 09:36:13;;;;;;;2.67;1.77;;;29.00;84.80;;;;;;5054058;28;20048;-69
2021/08/07 09:38:45;;;;;;;3.40;1.63;;;29.00;81.30;;;;;;5053443;28;20095;-69
2021/08/07 09:41:12;;;;;;;2.72;2.33;;;28.80;82.70;;;;;;5050120;28;20055;-69
2021/08/07 09:43:45;;;;;;;1.08;0.98;;;29.10;81.30;;;;;;5034156;28;20053;-69
2021/08/07 09:46:14;;;;;;;1.58;1.48;;;28.60;79.20;;;;;;5034065;28;20057;-68
2021/08/07 09:48:43;;;;;;;3.20;2.55;;;28.10;81.30;;;;;;5043082;28;20111;-69
2021/08/07 09:51:21;;;;;;;1.73;1.63;;;27.40;83.30;;;;;;5053677;28;20057;-68
2021/08/07 09:54:05;;;;;;;1.17;1.10;;;28.00;82.40;;;;;;5046554;28;20046;-68
2021/08/07 09:56:50;;;;;;;1.10;1.00;;;28.50;79.00;;;;;;5033906;28;20123;-67
2021/08/07 09:59:20;;;;;;;1.42;1.08;;;29.10;76.40;;;;;;5032934;28;20053;-68
2021/08/07 10:01:48;;;;;;;2.33;1.60;;;29.10;76.40;;;;;;5034095;28;20441;-69
2021/08/07 10:04:17;;;;;;;1.70;1.58;;;29.60;74.00;;;;;;5050099;28;20452;-68
2021/08/07 10:06:45;;;;;;;3.17;1.25;;;30.00;71.80;;;;;;5054070;28;20049;-69
2021/08/07 10:09:13;;;;;;;3.00;1.00;;;29.10;72.30;;;;;;5053669;28;20483;-69
2021/08/07 10:11:40;;;;;;;1.65;1.20;;;29.00;71.40;;;;;;5053763;28;20048;-70
2021/08/07 10:14:07;;;;;;;1.27;1.17;;;29.10;73.70;;;;;;5053112;28;20440;-68
2021/08/07 10:16:35;;;;;;;1.30;1.20;;;28.60;73.50;;;;;;5047105;28;20045;-70
2021/08/07 10:19:03;;;;;;;1.10;1.00;;;28.60;73.40;;;;;;5053583;28;20052;-68
2021/08/07 10:21:31;;;;;;;1.83;1.60;;;28.70;73.60;;;;;;5053072;28;20052;-68
2021/08/07 10:24:00;;;;;;;1.48;1.30;;;29.70;70.60;;;;;;5053814;28;20154;-68
2021/08/07 10:26:28;;;;;;;1.13;1.08;;;29.80;68.90;;;;;;5053568;28;21598;-70
2021/08/07 10:28:58;;;;;;;2.70;1.55;;;29.30;69.20;;;;;;5052145;28;20520;-69
2021/08/07 10:31:27;;;;;;;0.80;0.80;;;29.90;69.50;;;;;;5053731;28;20128;-68
2021/08/07 10:33:59;;;;;;;1.27;1.17;;;29.70;67.10;;;;;;5054158;28;20409;-68
2021/08/07 10:36:26;;;;;;;0.80;0.80;;;29.00;68.20;;;;;;5054008;28;20452;-67
2021/08/07 10:38:53;;;;;;;1.50;1.40;;;29.20;66.70;;;;;;5051244;28;20048;-69
2021/08/07 10:41:21;;;;;;;2.33;1.42;;;28.70;68.00;;;;;;5053400;28;20041;-67
2021/08/07 10:43:51;;;;;;;1.80;1.13;;;29.20;67.00;;;;;;5053256;28;20130;-68
2021/08/07 10:46:18;;;;;;;1.02;1.02;;;29.40;66.30;;;;;;5053548;28;20048;-68
2021/08/07 10:48:46;;;;;;;3.28;2.35;;;29.30;67.20;;;;;;5052529;28;20099;-68
2021/08/07 10:51:35;;;;;;;1.00;1.00;;;29.90;68.10;;;;;;5051817;28;20045;-68
2021/08/07 10:54:05;;;;;;;0.93;0.93;;;30.30;63.00;;;;;;5053021;28;20045;-68
2021/08/07 10:56:37;;;;;;;1.15;1.00;;;30.00;64.30;;;;;;5052944;28;20045;-68
2021/08/07 10:59:22;;;;;;;2.25;1.15;;;30.00;65.30;;;;;;5052082;28;20390;-68
2021/08/07 11:01:49;;;;;;;1.20;1.10;;;29.70;66.00;;;;;;5052614;28;20041;-69
2021/08/07 11:04:19;;;;;;;2.53;1.33;;;29.20;65.50;;;;;;5052733;28;20520;-69
2021/08/07 11:06:53;;;;;;;1.80;1.33;;;29.20;66.50;;;;;;5052614;28;20045;-71
2021/08/07 11:09:24;;;;;;;2.17;1.45;;;29.10;67.00;;;;;;5052135;28;20049;-70
2021/08/07 11:12:21;;;;;;;4.30;3.40;;;30.10;63.10;;;;;;5052960;28;20052;-70
2021/08/07 11:14:53;;;;;;;1.17;1.17;;;30.30;65.50;;;;;;5052080;28;20045;-68
2021/08/07 11:17:49;;;;;;;0.85;0.82;;;30.80;62.60;;;;;;5052853;28;20049;-70
2021/08/07 11:20:37;;;;;;;1.63;1.10;;;29.70;62.90;;;;;;5047511;28;20391;-68
2021/08/07 11:23:23;;;;;;;1.17;1.08;;;29.10;63.20;;;;;;5036478;28;20045;-69
2021/08/07 11:26:04;;;;;;;0.90;0.90;;;29.60;64.20;;;;;;5052642;28;20052;-69
2021/08/07 11:28:33;;;;;;;1.50;0.82;;;29.20;64.90;;;;;;5051360;28;20566;-69
2021/08/07 11:31:22;;;;;;;2.10;1.60;;;28.80;64.40;;;;;;5051918;28;20127;-69
2021/08/07 11:34:36;;;;;;;0.75;0.75;;;29.50;66.10;;;;;;5052305;28;20099;-68
2021/08/07 11:37:24;;;;;;;3.45;2.35;;;29.30;63.30;;;;;;5052019;28;20045;-68
2021/08/07 11:40:14;;;;;;;1.17;0.82;;;29.50;65.20;;;;;;5051511;28;20049;-72
2021/08/07 11:42:47;;;;;;;0.95;0.82;;;28.60;64.60;;;;;;5051976;28;20052;-69
2021/08/07 11:45:22;;;;;;;1.38;1.20;;;27.50;66.70;;;;;;5052038;28;20075;-72
2021/08/07 11:47:52;;;;;;;0.75;0.75;;;27.10;69.40;;;;;;5052556;28;20482;-69
2021/08/07 11:50:19;;;;;;;1.70;1.48;;;26.30;70.30;;;;;;5035818;28;20126;-68
2021/08/07 11:52:45;;;;;;;1.20;0.63;;;26.40;73.10;;;;;;5052032;28;20106;-69
2021/08/07 11:55:14;;;;;;;0.88;0.88;;;27.20;69.20;;;;;;5051524;28;20118;-69
2021/08/07 11:57:41;;;;;;;1.92;1.15;;;27.80;67.20;;;;;;5051575;28;20558;-68
2021/08/07 12:00:28;;;;;;;2.22;2.05;;;27.60;66.30;;;;;;5042664;28;20095;-69
2021/08/07 12:03:06;;;;;;;1.90;1.60;;;27.30;68.50;;;;;;5032178;28;20049;-69
2021/08/07 12:05:35;;;;;;;1.77;1.20;;;27.30;70.10;;;;;;5032187;28;20399;-69
2021/08/07 12:08:05;;;;;;;3.25;1.80;;;27.70;68.40;;;;;;5032058;28;20405;-72
2021/08/07 12:10:34;;;;;;;0.82;0.82;;;28.50;68.20;;;;;;5031189;28;20099;-69
2021/08/07 12:13:01;;;;;;;5.50;3.80;;;28.70;65.10;;;;;;5050554;28;20049;-69
2021/08/07 12:15:28;;;;;;;1.75;1.50;;;29.10;65.80;;;;;;5051342;28;20386;-75
2021/08/07 12:17:59;;;;;;;0.70;0.70;;;28.50;64.80;;;;;;5051266;28;20045;-68
2021/08/07 12:20:26;;;;;;;1.50;1.13;;;27.60;66.20;;;;;;5051061;28;20498;-68
2021/08/07 12:22:55;;;;;;;1.63;1.38;;;27.50;68.30;;;;;;5031502;28;20053;-67
2021/08/07 12:25:22;;;;;;;1.33;1.17;;;28.60;67.40;;;;;;5031410;28;20046;-68
2021/08/07 12:28:04;;;;;;;0.82;0.70;;;29.70;64.20;;;;;;5031480;28;20111;-69
2021/08/07 12:30:31;;;;;;;1.40;1.30;;;29.90;61.60;;;;;;5041850;28;20098;-72
2021/08/07 12:33:16;;;;;;;2.28;1.02;;;29.60;63.20;;;;;;5051331;28;20459;-69
2021/08/07 12:35:43;;;;;;;1.75;1.55;;;29.50;63.80;;;;;;5051182;28;20099;-69
2021/08/07 12:38:14;;;;;;;1.92;0.90;;;28.50;64.10;;;;;;5051394;28;20114;-71
2021/08/07 12:40:42;;;;;;;;;;;27.70;65.50;;;;;;5051631;28;20055;-69
2021/08/07 12:43:10;;;;;;;2.08;1.17;;;28.10;65.80;;;;;;5051135;28;19921;-69
2021/08/07 12:45:37;;;;;;;0.75;0.75;;;29.00;63.90;;;;;;5051284;28;20103;-69
2021/08/07 12:48:04;;;;;;;3.67;2.67;;;28.70;61.50;;;;;;5050326;28;20057;-69
2021/08/07 12:50:31;;;;;;;1.10;1.00;;;28.70;61.40;;;;;;5050714;28;20037;-68
2021/08/07 12:53:00;;;;;;;2.00;1.10;;;28.20;62.40;;;;;;5053577;28;20045;-69
2021/08/07 12:55:28;;;;;;;2.10;1.73;;;27.70;64.80;;;;;;5055025;28;20107;-69
2021/08/07 12:58:13;;;;;;;0.70;0.70;;;27.40;65.40;;;;;;5055054;28;20064;-68